Time;durP1;ratioP1;P1;durP2;ratioP2;P2;SDS_P1;SDS_P2;PMS_P1;PMS_P2;Temp;Humidity;BMP_temperature;BMP_pressure;BME280_temperature;BME280_humidity;BME280_pressure;Samples;Min_cycle;Max_cycle;Signal;HPM_P1;HPM_P2
2023/10/07 00:02:12;;;;;;;;;14.33;11.67;;;;;18.14;48.65;102132.88;5018113;28;45465;-77
2023/10/07 00:04:40;;;;;;;;;12.00;12.00;;;;;17.98;48.24;102097.63;5016582;28;45395;-79
2023/10/07 00:07:10;;;;;;;;;11.00;8.67;;;;;17.77;48.71;102080.06;5010924;28;45511;-76
2023/10/07 00:09:39;;;;;;;;;12.67;9.33;;;;;17.97;48.50;102120.63;5005662;28;45988;-74
2023/10/07 00:12:05;;;;;;;;;11.00;9.33;;;;;18.08;48.72;102141.78;5008196;28;45840;-75
2023/10/07 00:14:31;;;;;;;;;10.00;8.67;;;;;17.15;48.80;101984.22;5012057;28;45654;-76
2023/10/07 00:16:57;;;;;;;;;13.00;9.67;;;;;18.14;48.65;102160.28;5016317;28;45529;-75
2023/10/07 00:19:24;;;;;;;;;10.67;9.00;;;;;17.88;48.60;102106.56;5012538;28;45487;-76
2023/10/07 00:21:58;;;;;;;;;12.00;11.33;;;;;17.94;48.98;102122.44;5013155;28;45489;-77
2023/10/07 00:24:25;;;;;;;;;15.33;11.67;;;;;18.01;48.88;102126.81;5017587;28;45453;-74
2023/10/07 00:26:52;;;;;;;;;11.00;11.00;;;;;18.06;49.08;102148.84;5018596;28;45354;-74
2023/10/07 00:29:23;;;;;;;;;15.00;10.00;;;;;18.10;49.08;102152.34;5017320;28;45474;-72
2023/10/07 00:31:50;;;;;;;;;14.33;11.67;;;;;17.87;48.91;102108.34;5016871;28;45469;-79
2023/10/07 00:34:16;;;;;;;;;13.00;9.00;;;;;18.09;48.95;102132.03;5017981;28;45525;-75
2023/10/07 00:36:42;;;;;;;;;9.00;8.67;;;;;18.06;48.93;102143.56;5018532;28;45997;-73
2023/10/07 00:39:12;;;;;;;;;14.33;8.00;;;;;18.01;48.81;102135.63;5015199;28;45452;-73
2023/10/07 00:41:46;;;;;;;;;12.33;7.33;;;;;17.24;49.24;102001.81;5012645;28;45780;-76
2023/10/07 00:47:19;;;;;;;;;11.00;9.67;;;;;17.65;49.54;102070.44;5020108;28;45516;-75
2023/10/07 00:49:50;;;;;;;;;7.00;7.00;;;;;18.00;49.15;102127.66;5013473;28;45934;-74
2023/10/07 00:53:05;;;;;;;;;10.33;10.33;;;;;18.01;49.57;102142.72;5015730;28;45570;-75
2023/10/07 00:58:35;;;;;;;;;15.33;8.67;;;;;17.95;49.58;102145.38;5009480;28;45306;-74
2023/10/07 01:00:55;;;;;;;;;9.67;9.67;;;;;17.77;49.57;102110.13;5004595;28;45280;-74
2023/10/07 01:08:34;;;;;;;;;12.67;9.67;;;;;17.70;49.84;102103.09;5017608;28;45559;-74
2023/10/07 01:13:35;;;;;;;;;9.00;8.33;;;;;17.76;50.08;102115.41;5016823;28;45331;-73
2023/10/07 01:16:08;;;;;;;;;12.67;10.00;;;;;17.78;50.47;102122.47;5016737;28;45605;-77
2023/10/07 01:18:39;;;;;;;;;10.00;7.00;;;;;17.65;50.44;102104.88;5015781;28;45506;-72
2023/10/07 01:21:11;;;;;;;;;14.67;7.67;;;;;17.25;50.60;102028.31;5027363;28;45514;-74
2023/10/07 01:23:45;;;;;;;;;6.67;6.67;;;;;17.79;50.45;102112.75;5016529;28;45821;-75
2023/10/07 01:26:15;;;;;;;;;13.00;9.00;;;;;17.60;50.52;102070.44;5016611;28;45596;-73
2023/10/07 01:28:43;;;;;;;;;6.67;6.67;;;;;17.79;50.38;102096.84;5029094;28;45498;-71
2023/10/07 01:31:10;;;;;;;;;10.33;8.67;;;;;17.22;50.68;102003.59;5017574;28;46439;-74
2023/10/07 01:33:40;;;;;;;;;9.00;6.67;;;;;17.79;50.55;102095.06;5030612;28;44847;-74
2023/10/07 01:36:16;;;;;;;;;14.33;10.33;;;;;17.57;50.78;102070.47;5018940;28;45412;-74
2023/10/07 01:38:50;;;;;;;;;12.33;8.33;;;;;17.72;51.08;102098.66;5019660;28;45435;-77
2023/10/07 01:41:21;;;;;;;;;11.67;7.67;;;;;17.66;51.30;102090.75;5020422;28;47493;-75
2023/10/07 01:44:00;;;;;;;;;17.67;10.67;;;;;17.21;51.65;102029.19;5022197;28;45402;-75
2023/10/07 01:46:28;;;;;;;;;20.00;17.00;;;;;17.25;52.93;102059.16;5026808;28;45449;-74
2023/10/07 01:49:11;;;;;;;;;26.33;21.33;;;;;17.14;53.49;102035.41;5019200;28;45964;-76
2023/10/07 01:51:43;;;;;;;;;26.33;23.33;;;;;17.19;54.19;102073.31;5020908;28;47208;-76
2023/10/07 01:54:09;;;;;;;;;31.67;24.00;;;;;16.73;54.89;102023.19;5020391;28;45619;-74
2023/10/07 01:56:34;;;;;;;;;25.67;21.67;;;;;16.72;55.38;102046.09;5020570;28;45458;-77
2023/10/07 02:01:42;;;;;;;;;21.33;21.33;;;;;16.73;56.18;102084.03;5018815;28;45488;-75
2023/10/07 02:04:17;;;;;;;;;28.00;23.67;;;;;16.73;56.48;102090.19;5015191;28;45493;-76
2023/10/07 02:06:51;;;;;;;;;26.00;21.67;;;;;16.70;56.51;102095.50;5016497;28;45359;-77
2023/10/07 02:09:26;;;;;;;;;24.00;19.67;;;;;16.30;56.65;102034.72;5014501;28;45646;-76
2023/10/07 02:12:09;;;;;;;;;20.33;20.33;;;;;16.63;56.70;102101.66;5015631;28;45426;-76
2023/10/07 02:14:37;;;;;;;;;24.33;21.67;;;;;16.64;56.77;102100.78;5015744;28;45763;-74
2023/10/07 02:17:07;;;;;;;;;21.00;18.67;;;;;16.59;56.71;102102.56;5014509;28;45731;-75
2023/10/07 02:19:40;;;;;;;;;21.33;20.67;;;;;16.59;56.61;102106.97;5014874;28;45444;-75
2023/10/07 02:22:20;;;;;;;;;21.67;19.33;;;;;16.67;56.63;102115.78;5016981;28;45880;-75
2023/10/07 02:24:52;;;;;;;;;22.33;22.00;;;;;16.36;56.86;102070.84;5018288;28;45563;-76
2023/10/07 02:27:19;;;;;;;;;26.33;22.33;;;;;16.44;56.85;102098.16;5017360;28;45430;-77
2023/10/07 02:29:48;;;;;;;;;24.33;18.00;;;;;16.52;56.75;102101.69;5016571;28;45485;-76
2023/10/07 02:32:17;;;;;;;;;29.33;23.00;;;;;16.61;57.56;102129.00;5017162;28;45494;-75
2023/10/07 02:34:52;;;;;;;;;30.67;22.00;;;;;16.66;57.40;102127.25;5019415;28;45544;-75
2023/10/07 02:37:22;;;;;;;;;22.00;21.67;;;;;16.51;57.67;102115.81;5033001;28;45349;-74
2023/10/07 02:39:56;;;;;;;;;28.67;20.67;;;;;16.56;57.49;102112.25;5027777;28;45463;-74
2023/10/07 02:42:24;;;;;;;;;28.00;24.33;;;;;16.57;58.13;102119.31;5020642;28;47296;-75
2023/10/07 02:45:01;;;;;;;;;23.33;22.33;;;;;16.40;58.39;102092.91;5020354;28;45346;-75
2023/10/07 02:47:32;;;;;;;;;20.33;17.67;;;;;16.42;58.09;102105.22;5020476;28;45852;-77
2023/10/07 02:50:01;;;;;;;;;19.00;17.33;;;;;15.76;57.98;101988.06;5026069;28;45487;-75
2023/10/07 02:52:36;;;;;;;;;24.67;21.00;;;;;16.59;57.91;102106.97;5021021;28;46344;-75
2023/10/07 02:57:49;;;;;;;;;20.67;18.00;;;;;16.76;57.08;102115.78;5022553;28;45465;-75
2023/10/07 03:00:29;;;;;;;;;27.00;20.33;;;;;16.07;57.01;101995.09;5023017;28;45537;-76
2023/10/07 03:05:44;;;;;;;;;26.00;24.00;;;;;16.03;57.97;102024.16;5020915;28;45311;-76
2023/10/07 03:08:19;;;;;;;;;26.33;22.67;;;;;16.31;58.14;102078.78;5023160;28;45434;-72
2023/10/07 03:11:13;;;;;;;;;32.67;25.00;;;;;16.16;58.78;102092.00;5021826;28;45451;-73
2023/10/07 03:13:45;;;;;;;;;28.67;21.67;;;;;15.83;59.33;102047.94;5018854;28;46870;-72
2023/10/07 03:18:55;;;;;;;;;26.33;25.00;;;;;16.01;59.92;102107.84;5019299;28;45233;-75
2023/10/07 03:21:22;;;;;;;;;25.00;20.50;;;;;16.00;59.44;102111.38;5019483;28;45217;-74
2023/10/07 03:23:48;;;;;;;;;25.75;23.00;;;;;16.04;59.75;102119.31;5017913;28;46001;-74
2023/10/07 03:26:22;;;;;;;;;31.25;26.75;;;;;15.65;60.07;102072.50;5017761;28;45390;-76
2023/10/07 03:28:55;;;;;;;;;25.50;23.50;;;;;15.87;60.32;102110.44;5018246;28;45428;-76
2023/10/07 03:31:47;;;;;;;;;30.00;25.25;;;;;15.61;60.34;102076.03;5017785;28;45292;-76
2023/10/07 03:34:13;;;;;;;;;27.50;24.00;;;;;15.44;60.24;102058.38;5018311;28;45764;-76
2023/10/07 03:36:41;;;;;;;;;30.75;27.75;;;;;15.80;60.60;102130.72;5017532;28;45336;-72
2023/10/07 03:41:47;;;;;;;;;28.00;23.75;;;;;15.81;60.27;102129.81;5018381;28;45289;-72
2023/10/07 03:44:17;;;;;;;;;35.25;23.25;;;;;15.78;60.43;102127.19;5018225;28;46744;-75
2023/10/07 03:46:48;;;;;;;;;34.00;24.25;;;;;15.26;60.32;102061.84;5019624;28;45648;-76
2023/10/07 03:49:21;;;;;;;;;27.00;26.00;;;;;15.66;60.78;102130.63;5019529;28;45778;-75
2023/10/07 03:54:31;;;;;;;;;27.50;23.50;;;;;15.67;60.86;102129.75;5018223;28;45604;-76
2023/10/07 03:57:00;;;;;;;;;31.00;22.50;;;;;15.58;60.81;102124.44;5017070;28;45576;-74
2023/10/07 03:59:34;;;;;;;;;27.75;24.75;;;;;15.56;61.05;102123.53;5017777;28;45504;-74
2023/10/07 04:02:12;;;;;;;;;27.75;24.75;;;;;15.22;61.38;102080.31;5017912;28;45297;-75
2023/10/07 04:04:41;;;;;;;;;28.75;23.75;;;;;15.47;61.52;102118.22;5017348;28;45501;-73
2023/10/07 04:07:08;;;;;;;;;30.25;25.25;;;;;15.48;61.74;102130.56;5017226;28;45638;-75
2023/10/07 04:09:35;;;;;;;;;26.50;22.25;;;;;15.43;61.97;102132.31;5016076;28;45579;-73
2023/10/07 04:12:01;;;;;;;;;28.00;17.25;;;;;15.12;61.83;102081.16;5017649;28;45411;-73
2023/10/07 04:14:30;;;;;;;;;26.50;22.00;;;;;15.15;61.99;102083.78;5012187;28;47013;-74
2023/10/07 04:17:04;;;;;;;;;28.75;25.00;;;;;15.33;61.86;102106.72;5007436;28;45497;-75
2023/10/07 04:19:38;;;;;;;;;28.75;24.25;;;;;15.45;61.33;102127.91;5017051;28;45336;-77
2023/10/07 04:22:07;;;;;;;;;27.25;22.25;;;;;15.22;61.86;102093.50;5017173;28;45438;-76
2023/10/07 04:24:35;;;;;;;;;24.00;22.00;;;;;15.44;62.02;102136.69;5016710;28;45596;-72
2023/10/07 04:27:03;;;;;;;;;25.50;21.25;;;;;14.70;61.63;102016.72;5015916;28;46009;-74
2023/10/07 04:29:31;;;;;;;;;33.75;25.25;;;;;15.41;62.08;102132.28;5017848;28;45397;-74
2023/10/07 04:32:05;;;;;;;;;21.75;17.00;;;;;15.21;61.89;102102.28;5015320;28;45629;-74
2023/10/07 04:34:35;;;;;;;;;24.25;20.75;;;;;15.29;62.14;102116.41;5016986;28;45445;-74
2023/10/07 04:39:37;;;;;;;;;33.00;27.25;;;;;15.37;62.06;102124.34;5018269;28;45372;-76
2023/10/07 04:42:06;;;;;;;;;26.00;23.50;;;;;14.91;62.33;102050.25;5018149;28;45470;-75
2023/10/07 04:50:16;;;;;;;;;24.25;22.75;;;;;15.15;62.21;102103.13;5018425;28;45594;-73
2023/10/07 04:52:50;;;;;;;;;27.50;22.25;;;;;15.16;62.66;102114.56;5022588;28;45605;-74
2023/10/07 04:55:19;;;;;;;;;35.50;24.75;;;;;15.26;62.04;102124.31;5019835;28;45630;-72
2023/10/07 05:02:59;;;;;;;;;23.25;21.00;;;;;14.90;62.44;102095.97;5006638;28;45492;-73
2023/10/07 05:05:33;;;;;;;;;24.00;20.50;;;;;15.02;62.66;102139.16;5016427;28;46433;-75
2023/10/07 05:08:22;;;;;;;;;24.50;19.00;;;;;14.35;63.20;102044.59;5024864;28;45311;-73
2023/10/07 05:11:04;;;;;;;;;25.25;20.25;;;;;14.07;63.13;101979.38;5016947;28;45295;-74
2023/10/07 05:13:32;;;;;;;;;16.75;14.75;;;;;14.42;62.99;102056.06;5015675;28;45433;-74
2023/10/07 05:15:58;;;;;;;;;22.50;19.50;;;;;14.86;63.43;102132.00;5015764;28;45569;-73
2023/10/07 05:18:24;;;;;;;;;30.00;22.67;;;;;14.84;63.48;102134.63;5011239;28;45425;-74
2023/10/07 05:20:57;;;;;;;;;25.75;20.75;;;;;14.62;63.20;102098.44;5014899;28;45438;-73
2023/10/07 05:23:23;;;;;;;;;20.33;19.00;;;;;14.33;63.28;102049.00;5026956;28;45618;-75
2023/10/07 05:25:49;;;;;;;;;20.67;19.00;;;;;14.89;63.17;102141.69;5029571;28;45463;-75
2023/10/07 05:28:21;;;;;;;;;22.67;15.67;;;;;14.81;62.90;102126.69;5015590;28;45417;-73
2023/10/07 05:30:51;;;;;;;;;20.67;17.67;;;;;14.60;63.07;102098.41;5017296;28;45470;-74
2023/10/07 05:33:28;;;;;;;;;22.67;17.67;;;;;14.45;63.05;102063.09;5016201;28;45462;-73
2023/10/07 05:36:13;;;;;;;;;22.25;21.50;;;;;14.60;63.61;102100.19;5015460;28;45503;-74
2023/10/07 05:38:45;;;;;;;;;24.75;20.00;;;;;14.46;63.47;102076.31;5015227;28;45462;-74
2023/10/07 05:41:17;;;;;;;;;24.50;20.00;;;;;14.80;63.31;102134.59;5007338;28;45458;-74
2023/10/07 05:43:48;;;;;;;;;23.75;19.25;;;;;14.83;63.49;102132.88;5015917;28;45562;-76
2023/10/07 05:46:17;;;;;;;;;23.25;18.50;;;;;14.46;63.47;102083.34;5007710;28;46343;-73
2023/10/07 05:48:43;;;;;;;;;26.00;20.75;;;;;14.58;64.00;102110.69;5017523;28;45485;-74
2023/10/07 05:51:09;;;;;;;;;27.00;21.00;;;;;14.28;63.57;102063.84;5017290;28;45560;-74
2023/10/07 05:53:37;;;;;;;;;20.50;20.25;;;;;14.37;63.52;102085.03;5015650;28;45381;-73
2023/10/07 05:56:07;;;;;;;;;27.50;19.00;;;;;14.63;63.86;102118.66;5015650;28;45438;-76
2023/10/07 05:58:35;;;;;;;;;21.25;21.00;;;;;14.67;63.57;102138.91;5015111;28;45442;-73
2023/10/07 06:01:00;;;;;;;;;23.75;17.00;;;;;14.65;63.94;102142.41;5012747;28;45877;-74
2023/10/07 06:03:28;;;;;;;;;23.75;22.25;;;;;14.64;63.53;102141.53;5014314;28;45519;-75
2023/10/07 06:05:57;;;;;;;;;25.50;21.50;;;;;14.37;63.89;102103.47;5014102;28;46327;-74
2023/10/07 06:08:27;;;;;;;;;28.75;25.25;;;;;14.51;64.16;102136.97;5021953;28;45477;-75
2023/10/07 06:11:10;;;;;;;;;27.25;19.75;;;;;14.51;64.18;102136.97;5014898;28;45501;-74
2023/10/07 06:13:37;;;;;;;;;25.25;23.25;;;;;14.33;63.93;102095.53;5012551;28;45624;-73
2023/10/07 06:16:07;;;;;;;;;25.75;20.25;;;;;14.63;63.66;102134.47;5012336;28;46718;-74
2023/10/07 06:18:34;;;;;;;;;24.00;17.50;;;;;14.53;63.53;102112.41;5008819;28;45419;-74
2023/10/07 06:23:47;;;;;;;;;20.75;19.00;;;;;14.67;63.62;102136.28;5017536;28;45484;-72
2023/10/07 06:26:13;;;;;;;;;24.00;17.67;;;;;14.65;63.31;102147.69;5015580;28;47049;-73
2023/10/07 06:28:44;;;;;;;;;28.75;22.75;;;;;14.39;63.35;102128.09;5020251;28;45447;-73
2023/10/07 06:31:22;;;;;;;;;22.50;16.75;;;;;14.49;64.16;102146.63;5018937;28;45888;-74
2023/10/07 06:34:32;;;;;;;;;23.25;19.25;;;;;14.50;63.85;102151.00;5013393;28;45524;-73
2023/10/07 06:36:39;;;;;;;;;22.50;20.25;;;;;13.94;63.85;102063.59;5010008;28;46075;-74
2023/10/07 06:39:07;;;;;;;;;22.00;18.00;;;;;14.39;63.66;102133.38;5019591;28;45524;-72
2023/10/07 06:41:34;;;;;;;;;23.25;21.25;;;;;14.49;63.67;102149.25;5018152;28;45467;-74
2023/10/07 06:44:03;;;;;;;;;22.25;18.75;;;;;14.39;63.77;102150.94;5018812;28;45353;-73
2023/10/07 06:46:40;;;;;;;;;22.00;18.50;;;;;14.55;63.71;102166.06;5018996;28;45292;-74
2023/10/07 06:49:17;;;;;;;;;17.25;16.50;;;;;14.33;63.15;102120.16;5019569;28;45485;-73
2023/10/07 06:51:50;;;;;;;;;19.33;16.67;;;;;14.74;63.10;102163.56;5018194;28;45669;-73
2023/10/07 06:54:16;;;;;;;;;20.25;18.00;;;;;14.69;62.94;102149.44;5019342;28;45544;-75
2023/10/07 06:56:42;;;;;;;;;20.00;16.25;;;;;14.82;62.84;102160.09;5028615;28;47141;-73
2023/10/07 06:59:10;;;;;;;;;19.67;17.00;;;;;14.50;62.59;102101.84;5034944;28;45537;-74
2023/10/07 07:04:11;;;;;;;;;22.33;16.67;;;;;14.85;62.48;102138.13;5018569;28;45958;-75
2023/10/07 07:06:42;;;;;;;;;20.50;18.00;;;;;15.04;61.79;102160.25;5016314;28;47829;-73
2023/10/07 07:12:12;;;;;;;;;19.67;17.33;;;;;15.11;61.39;102126.88;5015220;28;45695;-75
2023/10/07 07:14:50;;;;;;;;;22.33;18.33;;;;;15.22;61.37;102163.00;5019191;28;45482;-74
2023/10/07 07:17:29;;;;;;;;;19.00;17.00;;;;;15.08;61.09;102122.44;5017986;28;46233;-74
2023/10/07 07:22:45;;;;;;;;;22.67;18.67;;;;;15.39;60.77;102171.00;5017922;28;45415;-73
2023/10/07 07:27:52;;;;;;;;;21.00;17.33;;;;;15.50;60.55;102167.56;5017799;28;45406;-73
2023/10/07 07:30:35;;;;;;;;;21.75;16.00;;;;;15.24;60.35;102108.47;5017731;28;45551;-74
2023/10/07 07:33:11;;;;;;;;;20.33;18.00;;;;;15.61;60.15;102163.16;5018898;28;45450;-73
2023/10/07 07:35:43;;;;;;;;;19.00;16.00;;;;;15.68;59.66;102167.59;5018954;28;45524;-74
2023/10/07 07:38:32;;;;;;;;;14.67;13.33;;;;;15.78;60.02;102165.91;5017449;28;45565;-75
2023/10/07 07:41:06;;;;;;;;;22.00;17.67;;;;;15.79;59.61;102178.25;5017313;28;45517;-73
2023/10/07 07:43:34;;;;;;;;;22.33;18.67;;;;;15.96;59.28;102184.47;5016808;28;45449;-74
2023/10/07 07:46:18;;;;;;;;;14.33;14.33;;;;;16.03;59.37;102185.38;5017328;28;45497;-75
2023/10/07 07:49:04;;;;;;;;;22.67;17.67;;;;;16.03;59.15;102180.06;5017014;28;45637;-73
2023/10/07 07:51:37;;;;;;;;;24.00;20.00;;;;;16.19;58.59;102187.16;5017968;28;45387;-73
2023/10/07 07:54:08;;;;;;;;;18.67;17.67;;;;;16.06;59.21;102178.34;5033136;28;45437;-74
2023/10/07 07:56:35;;;;;;;;;20.67;17.33;;;;;16.18;58.90;102180.09;5020347;28;46059;-71
2023/10/07 07:59:13;;;;;;;;;19.33;16.67;;;;;16.48;58.46;102205.69;5024432;28;45585;-71
2023/10/07 08:01:44;;;;;;;;;21.00;16.67;;;;;16.54;58.13;102171.34;5016602;28;45386;-73
2023/10/07 08:04:17;;;;;;;;;21.33;15.00;;;;;16.90;58.06;102201.34;5016014;28;45293;-73
2023/10/07 08:06:46;;;;;;;;;22.33;19.00;;;;;17.08;57.29;102210.13;5018337;28;45350;-68
2023/10/07 08:09:12;;;;;;;;;18.33;17.33;;;;;17.10;57.33;102218.94;5033146;28;47790;-71
2023/10/07 08:11:38;;;;;;;;;19.00;18.00;;;;;17.16;57.55;102234.84;5018800;28;45354;-72
2023/10/07 08:14:10;;;;;;;;;15.67;13.67;;;;;17.24;57.22;102222.47;5017347;28;45485;-72
2023/10/07 08:16:52;;;;;;;;;21.67;18.00;;;;;17.30;56.67;102219.81;5016847;28;45336;-71
2023/10/07 08:19:20;;;;;;;;;23.33;19.33;;;;;17.41;56.28;102230.34;5015728;28;46442;-72
2023/10/07 08:21:51;;;;;;;;;19.67;18.33;;;;;17.41;55.91;102225.06;5017364;28;45463;-71
2023/10/07 08:24:23;;;;;;;;;21.00;17.67;;;;;17.54;55.77;102234.75;5017955;28;45270;-71
2023/10/07 08:26:49;;;;;;;;;23.33;19.67;;;;;17.72;55.85;102249.69;5017499;28;45541;-70
2023/10/07 08:29:32;;;;;;;;;22.67;20.00;;;;;17.74;55.80;102234.66;5016144;28;46517;-71
2023/10/07 08:32:34;;;;;;;;;18.33;18.00;;;;;17.38;55.30;102140.34;5016935;28;45880;-71
2023/10/07 08:34:47;;;;;;;;;25.00;21.67;;;;;17.73;55.09;102193.16;5017853;28;45346;-72
2023/10/07 08:37:15;;;;;;;;;22.00;19.33;;;;;17.96;55.12;102205.44;5018331;28;45300;-70
2023/10/07 08:39:44;;;;;;;;;23.00;22.00;;;;;17.91;54.72;102178.97;5015358;28;45724;-71
2023/10/07 08:42:17;;;;;;;;;28.67;22.67;;;;;18.08;54.17;102188.59;5015958;28;45568;-71
2023/10/07 08:44:51;;;;;;;;;22.00;17.67;;;;;18.36;53.83;102215.81;5015262;28;45380;-71
2023/10/07 08:47:21;;;;;;;;;26.67;22.00;;;;;18.64;53.84;102230.63;5016334;28;45363;-70
2023/10/07 08:49:48;;;;;;;;;23.00;20.67;;;;;18.51;53.89;102175.94;5015973;28;45479;-71
2023/10/07 08:52:16;;;;;;;;;31.67;22.67;;;;;18.70;53.52;102197.88;5015537;28;45441;-72
2023/10/07 08:54:44;;;;;;;;;21.33;18.67;;;;;18.94;53.24;102211.88;5016906;28;45307;-71
2023/10/07 08:57:16;;;;;;;;;21.00;18.00;;;;;19.28;52.74;102223.91;5016547;28;45622;-72
2023/10/07 08:59:52;;;;;;;;;26.00;21.67;;;;;19.52;52.24;102228.97;5015663;28;45361;-72
2023/10/07 09:02:27;;;;;;;;;19.00;17.67;;;;;19.75;51.82;102248.22;5015654;28;45540;-71
2023/10/07 09:04:59;;;;;;;;;18.00;17.67;;;;;19.85;51.48;102244.53;5016177;28;45489;-71
2023/10/07 09:07:30;;;;;;;;;28.00;24.67;;;;;19.95;51.10;102244.41;5031430;28;45538;-71
2023/10/07 09:10:10;;;;;;;;;20.00;19.33;;;;;20.09;51.24;102245.09;5016069;28;45486;-70
2023/10/07 09:12:45;;;;;;;;;22.67;18.33;;;;;20.13;50.90;102233.53;5014465;28;45780;-71
2023/10/07 09:15:20;;;;;;;;;26.67;18.00;;;;;20.17;50.55;102198.03;5015816;28;45439;-72
2023/10/07 09:17:45;;;;;;;;;21.00;17.67;;;;;20.64;50.06;102248.78;5015847;28;45487;-70
2023/10/07 09:20:19;;;;;;;;;27.00;20.33;;;;;20.72;50.35;102238.88;5015829;28;45433;-70
2023/10/07 09:22:53;;;;;;;;;17.33;16.67;;;;;20.86;50.08;102228.88;5017236;28;45406;-70
2023/10/07 09:25:29;;;;;;;;;24.00;20.33;;;;;20.98;49.93;102233.13;5017193;28;45452;-72
2023/10/07 09:28:00;;;;;;;;;24.67;20.67;;;;;21.13;49.45;102239.94;5017489;28;45264;-73
2023/10/07 09:30:44;;;;;;;;;22.33;20.00;;;;;21.26;49.24;102236.16;5015842;28;45441;-72
2023/10/07 09:33:14;;;;;;;;;19.33;18.33;;;;;21.23;48.57;102195.34;5015590;28;45502;-74
2023/10/07 09:35:42;;;;;;;;;19.33;19.33;;;;;21.62;48.50;102238.16;5014618;28;45884;-76
2023/10/07 09:38:12;;;;;;;;;20.00;19.33;;;;;21.66;47.92;102224.72;5015996;28;45321;-76
2023/10/07 09:43:33;;;;;;;;;19.67;17.33;;;;;21.37;47.88;102158.66;5018379;28;45411;-74
2023/10/07 09:45:58;;;;;;;;;20.67;16.67;;;;;21.89;47.87;102212.72;5020762;28;45356;-73
2023/10/07 09:48:31;;;;;;;;;17.67;14.67;;;;;21.95;47.42;102193.91;5021238;28;45466;-75
2023/10/07 09:51:02;;;;;;;;;20.33;17.33;;;;;22.28;46.96;102218.97;5021000;28;46070;-75
2023/10/07 09:53:46;;;;;;;;;20.00;15.00;;;;;22.75;46.67;102240.94;5020475;28;45422;-75
2023/10/07 09:56:43;;;;;;;;;12.33;11.00;;;;;23.16;46.14;102235.47;5020139;28;45472;-75
2023/10/07 09:59:43;;;;;;;;;15.00;13.33;;;;;23.58;45.04;102237.91;5031403;28;45570;-76
2023/10/07 10:02:43;;;;;;;;;16.00;13.00;;;;;23.98;44.45;102242.97;5015160;28;45426;-76
2023/10/07 10:05:35;;;;;;;;;16.33;13.67;;;;;24.39;43.88;102247.97;5017604;28;45376;-74
2023/10/07 10:08:29;;;;;;;;;16.67;13.00;;;;;24.70;43.11;102242.50;5007890;28;45465;-74
2023/10/07 10:10:58;;;;;;;;;16.67;12.67;;;;;24.98;42.82;102232.59;5018868;28;45430;-74
2023/10/07 10:16:18;;;;;;;;;15.33;14.67;;;;;25.25;40.77;102202.22;5018725;28;45471;-75
2023/10/07 10:18:50;;;;;;;;;15.33;12.67;;;;;25.60;40.57;102233.09;5018873;28;45438;-74
2023/10/07 10:21:22;;;;;;;;;18.33;12.33;;;;;26.37;39.88;102225.66;5018576;28;45672;-74
2023/10/07 10:23:51;;;;;;;;;14.00;12.75;;;;;28.37;36.55;102219.44;5018850;28;46053;-74
2023/10/07 10:26:27;;;;;;;;;10.75;10.50;;;;;30.41;33.44;102221.16;5018408;28;45502;-75
2023/10/07 10:29:03;;;;;;;;;9.00;7.00;;;;;32.01;30.54;102212.25;5030378;28;45469;-76
2023/10/07 10:31:35;;;;;;;;;8.00;8.00;;;;;32.92;29.20;102174.44;5020296;28;45590;-74
2023/10/07 10:34:08;;;;;;;;;9.00;8.75;;;;;33.55;27.51;102174.53;5008777;28;45405;-77
2023/10/07 10:36:48;;;;;;;;;8.60;5.80;;;;;34.33;27.27;102214.13;5020264;28;45311;-76
2023/10/07 10:39:22;;;;;;;;;6.40;5.80;;;;;35.01;26.89;102207.94;5019220;28;45806;-73
2023/10/07 10:41:48;;;;;;;;;8.75;7.50;;;;;35.15;26.04;102167.91;5019001;28;45556;-74
2023/10/07 10:44:16;;;;;;;;;9.60;7.40;;;;;35.64;25.91;102193.91;5018984;28;45839;-75
2023/10/07 10:46:46;;;;;;;;;6.60;6.60;;;;;35.99;24.42;102193.72;5020571;28;45422;-74
2023/10/07 10:49:17;;;;;;;;;5.00;5.00;;;;;36.68;24.72;102203.41;5019042;28;45328;-74
2023/10/07 10:51:47;;;;;;;;;9.20;7.00;;;;;37.09;24.06;102158.88;5017953;28;45406;-73
2023/10/07 10:54:23;;;;;;;;;4.20;3.40;;;;;37.33;23.31;102152.22;5018470;28;45520;-78
2023/10/07 10:56:55;;;;;;;;;7.40;5.80;;;;;38.05;22.00;102145.66;5018783;28;45566;-75
2023/10/07 10:59:22;;;;;;;;;8.40;5.20;;;;;38.81;22.22;102202.38;5018807;28;45430;-82
2023/10/07 11:01:52;;;;;;;;;6.40;5.40;;;;;38.80;21.56;102193.31;5018878;28;45380;-80
2023/10/07 11:04:21;;;;;;;;;6.80;5.00;;;;;38.97;21.22;102188.97;5018391;28;46307;-75
2023/10/07 11:06:54;;;;;;;;;6.20;6.00;;;;;38.56;21.38;102138.16;5018283;28;45439;-78
2023/10/07 11:09:36;;;;;;;;;6.80;6.80;;;;;38.34;21.93;102109.22;5018853;28;45289;-76
2023/10/07 11:12:16;;;;;;;;;8.80;6.80;;;;;39.36;21.52;102194.34;5020311;28;45395;-72
2023/10/07 11:14:43;;;;;;;;;3.80;3.80;;;;;39.84;20.68;102187.75;5020586;28;45493;-74
2023/10/07 11:17:10;;;;;;;;;5.00;5.00;;;;;39.48;20.33;102123.72;5019753;28;45445;-76
2023/10/07 11:19:44;;;;;;;;;5.80;5.80;;;;;39.84;19.88;102189.63;5020756;28;45504;-75
2023/10/07 11:22:14;;;;;;;;;7.00;4.80;;;;;39.49;19.61;102161.09;5019193;28;45495;-78
2023/10/07 11:24:40;;;;;;;;;5.40;5.20;;;;;39.07;20.25;102119.59;5017486;28;45490;-74
2023/10/07 11:27:08;;;;;;;;;4.50;4.50;;;;;39.42;20.66;102173.69;5017417;28;45569;-76
2023/10/07 11:29:36;;;;;;;;;8.20;6.80;;;;;39.85;21.19;102172.16;5016543;28;45398;-74
2023/10/07 11:32:09;;;;;;;;;6.60;6.60;;;;;39.88;19.88;102158.13;5017881;28;45376;-75
2023/10/07 11:34:37;;;;;;;;;6.00;4.20;;;;;39.93;20.36;102163.16;5017447;28;46517;-72
2023/10/07 11:37:10;;;;;;;;;5.00;4.40;;;;;40.27;19.91;102150.47;5017395;28;45473;-73
2023/10/07 11:39:47;;;;;;;;;4.40;3.60;;;;;40.33;19.26;102157.22;5016597;28;45457;-74
2023/10/07 11:42:17;;;;;;;;;5.80;3.20;;;;;39.86;19.17;102165.66;5017823;28;45335;-71
2023/10/07 11:44:54;;;;;;;;;5.80;4.20;;;;;39.26;19.77;102094.84;5017370;28;46481;-72
2023/10/07 11:47:20;;;;;;;;;6.20;6.20;;;;;39.18;20.93;102095.59;5018420;28;45476;-73
2023/10/07 11:49:47;;;;;;;;;8.60;5.80;;;;;39.28;20.73;102136.66;5017021;28;45528;-73
2023/10/07 11:52:14;;;;;;;;;5.60;4.60;;;;;39.01;20.59;102148.44;5018188;28;45482;-75
2023/10/07 11:54:40;;;;;;;;;6.00;5.40;;;;;37.85;21.48;102037.22;5020195;28;45765;-72
2023/10/07 11:57:06;;;;;;;;;11.00;5.20;;;;;38.28;21.29;102154.44;5017022;28;45442;-72
2023/10/07 11:59:38;;;;;;;;;5.20;5.20;;;;;37.71;21.87;102121.44;5016554;28;45446;-73
2023/10/07 12:02:09;;;;;;;;;4.40;4.00;;;;;37.39;22.06;102140.72;5019093;28;45271;-72
2023/10/07 12:04:39;;;;;;;;;5.60;4.00;;;;;36.32;22.38;102071.88;5017294;28;46173;-74
2023/10/07 12:07:14;;;;;;;;;7.60;6.00;;;;;36.03;23.19;102150.72;5015883;28;45823;-74
2023/10/07 12:09:40;;;;;;;;;3.20;3.20;;;;;34.42;24.28;102002.13;5018557;28;45296;-75
2023/10/07 12:12:08;;;;;;;;;5.40;4.20;;;;;34.66;24.34;102112.75;5019034;28;45447;-74
2023/10/07 12:14:34;;;;;;;;;4.80;4.80;;;;;34.76;25.22;102165.44;5016465;28;47631;-76
2023/10/07 12:17:01;;;;;;;;;3.40;3.40;;;;;34.59;24.57;102161.28;5017647;28;45554;-75
2023/10/07 12:19:27;;;;;;;;;2.40;1.00;;;;;34.14;25.62;102161.13;5016450;28;45434;-74
2023/10/07 12:21:53;;;;;;;;;6.50;5.25;;;;;33.48;26.01;102076.34;5018214;28;45505;-74
2023/10/07 12:24:20;;;;;;;;;5.00;5.00;;;;;33.79;25.96;102161.91;5016997;28;46221;-75
2023/10/07 12:26:50;;;;;;;;;5.00;5.00;;;;;33.61;26.66;102151.53;5017445;28;45475;-74
2023/10/07 12:29:19;;;;;;;;;5.60;5.20;;;;;32.94;26.34;102087.50;5020841;28;45538;-74
2023/10/07 12:31:47;;;;;;;;;6.00;5.00;;;;;33.28;26.89;102156.56;5020721;28;45193;-73
2023/10/07 12:34:15;;;;;;;;;4.40;4.00;;;;;32.82;27.55;102145.34;5019794;28;45337;-74
2023/10/07 12:36:41;;;;;;;;;6.60;5.00;;;;;32.56;27.67;102149.88;5020572;28;45405;-76
2023/10/07 12:39:10;;;;;;;;;7.75;5.25;;;;;32.46;27.92;102149.59;5020738;28;45317;-74